HEART1 EFRO-EFRO

Flight info

Callsign HEART1
Flight time 0h 55m
Altitude 20000
Route H02C
Aircraft F35/M-SDGIRUY/C

Departure

Time 2026-05-05 18:23
Airport Rovaniemi Airport (EFRO)

Arrival

Time 2026-05-05 19:19
Airport Rovaniemi Airport (EFRO)
Time Latitude Longitude Altitude Speed Heading
2026-05-05 18:07 66.56831 25.82888 643 ft 0 kts 308°
2026-05-05 18:17 66.56835 25.82875 643 ft 1 kts 308°
2026-05-05 18:18 66.56839 25.82862 642 ft 0 kts 310°
2026-05-05 18:18 66.56842 25.82853 642 ft 3 kts 311°
2026-05-05 18:18 66.56858 25.82862 642 ft 5 kts 100°
2026-05-05 18:18 66.56830 25.82957 640 ft 2 kts 127°
2026-05-05 18:19 66.56826 25.82964 639 ft 0 kts 149°
2026-05-05 18:19 66.56825 25.82985 638 ft 2 kts 69°
2026-05-05 18:19 66.56849 25.83033 637 ft 9 kts 39°
2026-05-05 18:19 66.56907 25.83137 634 ft 12 kts 36°
2026-05-05 18:20 66.56984 25.83269 632 ft 14 kts
2026-05-05 18:20 66.57081 25.83242 632 ft 14 kts 351°
2026-05-05 18:20 66.57175 25.83248 630 ft 14 kts 11°
2026-05-05 18:20 66.57276 25.83233 626 ft 16 kts 354°
2026-05-05 18:21 66.57318 25.83424 621 ft 16 kts 99°
2026-05-05 18:21 66.57301 25.83729 616 ft 16 kts 97°
2026-05-05 18:21 66.57290 25.83930 608 ft 12 kts 98°
2026-05-05 18:21 66.57278 25.84139 605 ft 12 kts 100°
2026-05-05 18:22 66.57229 25.84298 606 ft 11 kts 154°
2026-05-05 18:22 66.57158 25.84327 606 ft 10 kts 207°
2026-05-05 18:22 66.57141 25.84295 606 ft 6 kts 218°
2026-05-05 18:22 66.56775 25.83598 618 ft 146 kts 217°
2026-05-05 18:23 66.55596 25.81357 1034 ft 246 kts 217°
2026-05-05 18:23 66.53958 25.79653 2156 ft 277 kts 185°
2026-05-05 18:23 66.52005 25.81009 2885 ft 318 kts 141°
2026-05-05 18:23 66.50571 25.85635 3682 ft 353 kts 122°
2026-05-05 18:24 66.49136 25.90820 5465 ft 362 kts 123°
2026-05-05 18:24 66.47786 25.95744 6897 ft 330 kts 122°
2026-05-05 18:24 66.46567 26.00382 7683 ft 304 kts 120°
2026-05-05 18:24 66.45493 26.04814 8415 ft 299 kts 120°
2026-05-05 18:25 66.44346 26.09438 9239 ft 323 kts 122°
2026-05-05 18:25 66.43516 26.12540 10130 ft 324 kts 122°
2026-05-05 18:25 66.41816 26.18953 11858 ft 337 kts 121°
2026-05-05 18:25 66.40548 26.23852 13217 ft 341 kts 121°
2026-05-05 18:26 66.39261 26.28815 14558 ft 343 kts 121°
2026-05-05 18:26 66.37934 26.33933 15399 ft 363 kts 121°
2026-05-05 18:26 66.36541 26.39369 16077 ft 377 kts 121°
2026-05-05 18:26 66.35148 26.44893 17090 ft 373 kts 121°
2026-05-05 18:27 66.33765 26.50285 18284 ft 365 kts 122°
2026-05-05 18:27 66.32378 26.55542 19179 ft 362 kts 122°
2026-05-05 18:27 66.30993 26.60801 19867 ft 366 kts 121°
2026-05-05 18:27 66.29594 26.66307 19923 ft 389 kts 121°
2026-05-05 18:28 66.26618 26.78104 20281 ft 398 kts 121°
2026-05-05 18:28 66.25142 26.83932 19942 ft 387 kts 121°
2026-05-05 18:28 66.23794 26.89352 20089 ft 379 kts 120°
2026-05-05 18:29 66.22446 26.94833 20027 ft 373 kts 120°
2026-05-05 18:29 66.21103 27.00322 20006 ft 372 kts 120°
2026-05-05 18:29 66.19758 27.05815 20008 ft 371 kts 120°
2026-05-05 18:29 66.18415 27.11289 20016 ft 374 kts 120°
2026-05-05 18:30 66.17069 27.16765 20023 ft 372 kts 120°
2026-05-05 18:30 66.15721 27.22241 20028 ft 373 kts 120°
2026-05-05 18:30 66.14372 27.27707 20029 ft 372 kts 120°
2026-05-05 18:30 66.13018 27.33188 20033 ft 373 kts 120°
2026-05-05 18:31 66.11650 27.38604 20039 ft 373 kts 124°
2026-05-05 18:31 66.09881 27.43253 20055 ft 374 kts 146°
2026-05-05 18:31 66.07480 27.45702 20088 ft 375 kts 172°
2026-05-05 18:31 66.04894 27.45444 20111 ft 378 kts 197°
2026-05-05 18:32 66.02549 27.42617 20130 ft 374 kts 221°
2026-05-05 18:32 66.00928 27.37711 20143 ft 369 kts 247°
2026-05-05 18:32 66.00334 27.31661 20152 ft 367 kts 272°
2026-05-05 18:32 66.00526 27.25453 20116 ft 362 kts 279°
2026-05-05 18:33 66.01075 27.19518 20107 ft 358 kts 297°
2026-05-05 18:33 66.02563 27.14639 20135 ft 361 kts 323°
2026-05-05 18:33 66.04720 27.11635 20122 ft 355 kts 338°
2026-05-05 18:33 66.07047 27.09460 20090 ft 358 kts 341°
2026-05-05 18:34 66.09291 27.07628 20057 ft 320 kts 342°
2026-05-05 18:34 66.11324 27.06064 20490 ft 307 kts 343°
2026-05-05 18:34 66.13402 27.04505 20805 ft 311 kts 343°
2026-05-05 18:34 66.15469 27.02968 20936 ft 310 kts 344°
2026-05-05 18:35 66.17528 27.01439 20989 ft 311 kts 343°
2026-05-05 18:35 66.19616 26.99897 21016 ft 313 kts 343°
2026-05-05 18:35 66.21700 26.98359 20896 ft 315 kts 343°
2026-05-05 18:35 66.23782 26.96824 20683 ft 313 kts 344°
2026-05-05 18:36 66.25771 26.94757 20622 ft 310 kts 323°
2026-05-05 18:36 66.27118 26.90661 20625 ft 315 kts 293°
2026-05-05 18:36 66.27477 26.85262 20643 ft 319 kts 263°
2026-05-05 18:36 66.26726 26.80155 20657 ft 323 kts 234°
2026-05-05 18:37 66.25043 26.76517 20668 ft 327 kts 204°
2026-05-05 18:37 66.22849 26.75318 20679 ft 327 kts 176°
2026-05-05 18:37 66.20585 26.76061 20632 ft 326 kts 166°
2026-05-05 18:37 66.18552 26.78318 20649 ft 325 kts 137°
2026-05-05 18:38 66.17211 26.82707 20671 ft 319 kts 108°
2026-05-05 18:38 66.16924 26.88085 20686 ft 318 kts 78°
2026-05-05 18:38 66.17744 26.93035 20691 ft 313 kts 48°
2026-05-05 18:38 66.19446 26.96305 20692 ft 313 kts 22°
2026-05-05 18:39 66.21533 26.97451 20691 ft 310 kts 354°
2026-05-05 18:39 66.23577 26.95783 20696 ft 314 kts 326°
2026-05-05 18:39 66.25277 26.92383 20645 ft 313 kts 317°
2026-05-05 18:39 66.26841 26.88607 20604 ft 315 kts 315°
2026-05-05 18:40 66.28503 26.85177 20583 ft 309 kts 335°
2026-05-05 18:40 66.30606 26.84099 20605 ft 311 kts
2026-05-05 18:40 66.32625 26.85804 20627 ft 313 kts 36°
2026-05-05 18:40 66.34042 26.89874 20651 ft 314 kts 65°
2026-05-05 18:41 66.34454 26.95148 20666 ft 321 kts 95°
2026-05-05 18:41 66.33756 27.00376 20676 ft 322 kts 124°
2026-05-05 18:41 66.32109 27.04127 20684 ft 326 kts 154°
2026-05-05 18:41 66.29923 27.05449 20691 ft 328 kts 183°
2026-05-05 18:42 66.27750 27.04015 20696 ft 325 kts 211°
2026-05-05 18:42 66.25875 27.00822 20638 ft 326 kts 220°
2026-05-05 18:42 66.24124 26.97246 20601 ft 325 kts 222°
2026-05-05 18:42 66.22362 26.93408 20588 ft 337 kts 223°
2026-05-05 18:43 66.20620 26.89513 20577 ft 338 kts 223°
2026-05-05 18:43 66.18908 26.85526 20568 ft 339 kts 228°
2026-05-05 18:43 66.17302 26.81016 20576 ft 374 kts 231°
2026-05-05 18:43 66.15690 26.76103 20575 ft 366 kts 232°
2026-05-05 18:44 66.14063 26.70969 20583 ft 412 kts 233°
2026-05-05 18:44 66.12367 26.65528 20583 ft 401 kts 233°
2026-05-05 18:44 66.10662 26.60059 20576 ft 400 kts 231°
2026-05-05 18:44 66.08761 26.54919 20577 ft 430 kts 226°
2026-05-05 18:45 66.06511 26.50071 20586 ft 427 kts 216°
2026-05-05 18:45 66.03944 26.46383 20593 ft 425 kts 203°
2026-05-05 18:45 66.01142 26.43956 20589 ft 428 kts 196°
2026-05-05 18:45 65.98283 26.42017 21101 ft 431 kts 194°
2026-05-05 18:46 65.95369 26.40209 21381 ft 434 kts 194°
2026-05-05 18:46 65.92435 26.38455 21491 ft 428 kts 193°
2026-05-05 18:46 65.89547 26.36739 21542 ft 430 kts 192°
2026-05-05 18:46 65.86606 26.35170 21550 ft 452 kts 191°
2026-05-05 18:47 65.83496 26.33628 21566 ft 452 kts 190°
2026-05-05 18:47 65.80426 26.32149 21489 ft 451 kts 190°
2026-05-05 18:47 65.77340 26.30691 21561 ft 455 kts 190°
2026-05-05 18:47 65.74244 26.29252 21562 ft 454 kts 189°
2026-05-05 18:48 65.71144 26.28004 21563 ft 440 kts 187°
2026-05-05 18:48 65.68289 26.27023 21544 ft 390 kts 187°
2026-05-05 18:48 65.65774 26.26166 21661 ft 354 kts 187°
2026-05-05 18:48 65.63332 26.26289 21674 ft 354 kts 163°
2026-05-05 18:49 65.61153 26.28936 21563 ft 351 kts 138°
2026-05-05 18:49 65.59704 26.33409 21701 ft 341 kts 115°
2026-05-05 18:49 65.59157 26.39014 21600 ft 328 kts 93°
2026-05-05 18:49 65.59116 26.44086 21734 ft 284 kts 75°
2026-05-05 18:50 65.59994 26.47968 21464 ft 251 kts 44°
2026-05-05 18:50 65.61538 26.50417 21419 ft 296 kts 28°
2026-05-05 18:50 65.63640 26.52639 22439 ft 359 kts 19°
2026-05-05 18:50 65.66271 26.53868 22782 ft 407 kts
2026-05-05 18:51 65.69068 26.54787 22662 ft 387 kts
2026-05-05 18:51 65.71445 26.55540 22545 ft 313 kts
2026-05-05 18:51 65.73621 26.56201 22553 ft 321 kts 10°
2026-05-05 18:51 65.75973 26.57055 22586 ft 339 kts
2026-05-05 18:52 65.78262 26.57827 22552 ft 340 kts
2026-05-05 18:52 65.80461 26.58539 22620 ft 302 kts
2026-05-05 18:52 65.82629 26.59303 22460 ft 320 kts 10°
2026-05-05 18:52 65.84852 26.60045 22521 ft 336 kts
2026-05-05 18:53 65.87164 26.60807 22653 ft 292 kts
2026-05-05 18:53 65.89240 26.61528 22524 ft 337 kts 12°
2026-05-05 18:53 65.91614 26.62428 22620 ft 318 kts
2026-05-05 18:53 65.93737 26.63221 22589 ft 323 kts
2026-05-05 18:54 65.96014 26.64132 22575 ft 321 kts
2026-05-05 18:54 65.98180 26.64994 22524 ft 319 kts
2026-05-05 18:54 66.00304 26.65785 22443 ft 296 kts 10°
2026-05-05 18:54 66.02323 26.65734 22417 ft 305 kts 346°
2026-05-05 18:55 66.04479 26.63404 22506 ft 369 kts 320°
2026-05-05 18:55 66.05971 26.59232 22580 ft 297 kts 306°
2026-05-05 18:55 66.06747 26.54271 22568 ft 345 kts 281°
2026-05-05 18:55 66.06604 26.48396 22544 ft 332 kts 258°
2026-05-05 18:56 66.05653 26.43573 22584 ft 307 kts 234°
2026-05-05 18:56 66.03950 26.39723 22669 ft 366 kts 209°
2026-05-05 18:56 66.02989 26.38607 22625 ft 383 kts 201°
2026-05-05 18:56 66.02379 26.38093 22572 ft 393 kts 195°
2026-05-05 18:57 65.99377 26.36567 22940 ft 485 kts 189°
2026-05-05 18:57 65.96238 26.35217 22613 ft 435 kts 188°
2026-05-05 18:57 65.93433 26.34072 22566 ft 382 kts 188°
2026-05-05 18:57 65.91025 26.33033 22544 ft 335 kts 188°
2026-05-05 18:58 65.88701 26.31986 22563 ft 337 kts 189°
2026-05-05 18:58 65.86417 26.30956 22566 ft 344 kts 189°
2026-05-05 18:58 65.84111 26.29945 22536 ft 327 kts 188°
2026-05-05 18:58 65.81825 26.28947 22554 ft 325 kts 189°
2026-05-05 18:59 65.79574 26.27948 22562 ft 319 kts 188°
2026-05-05 18:59 65.77377 26.26989 22537 ft 338 kts 189°
2026-05-05 18:59 65.75109 26.25987 22540 ft 329 kts 188°
2026-05-05 18:59 65.72837 26.24994 22532 ft 318 kts 189°
2026-05-05 19:00 65.70570 26.23980 22568 ft 331 kts 189°
2026-05-05 19:00 65.68337 26.22992 22551 ft 335 kts 189°
2026-05-05 19:00 65.66067 26.22001 22565 ft 327 kts 187°
2026-05-05 19:00 65.63772 26.21925 22533 ft 315 kts 165°
2026-05-05 19:01 65.61698 26.23939 22615 ft 325 kts 146°
2026-05-05 19:01 65.60101 26.27747 22595 ft 321 kts 121°
2026-05-05 19:01 65.59276 26.32742 22588 ft 315 kts 98°
2026-05-05 19:01 65.59344 26.38027 22590 ft 320 kts 75°
2026-05-05 19:02 65.60275 26.42765 22600 ft 324 kts 52°
2026-05-05 19:02 65.61938 26.46303 22650 ft 307 kts 31°
2026-05-05 19:02 65.63938 26.47857 22560 ft 322 kts 14°
2026-05-05 19:02 65.66302 26.48077 23185 ft 320 kts 333°
2026-05-05 19:03 65.67313 26.43490 23591 ft 343 kts 259°
2026-05-05 19:03 65.65860 26.39499 23468 ft 345 kts 191°
2026-05-05 19:03 65.63679 26.40525 23535 ft 321 kts 136°
2026-05-05 19:03 65.62906 26.45490 23321 ft 327 kts 76°
2026-05-05 19:04 65.64288 26.49381 23299 ft 321 kts 15°
2026-05-05 19:04 65.66643 26.49784 23613 ft 343 kts
2026-05-05 19:04 65.68939 26.50179 23005 ft 326 kts
2026-05-05 19:04 65.71476 26.50469 22730 ft 434 kts
2026-05-05 19:05 65.74471 26.50771 22641 ft 428 kts
2026-05-05 19:05 65.77452 26.51048 22604 ft 425 kts
2026-05-05 19:05 65.80415 26.51308 22586 ft 425 kts
2026-05-05 19:05 65.83372 26.51548 22577 ft 428 kts
2026-05-05 19:06 65.86339 26.51805 22572 ft 429 kts
2026-05-05 19:06 65.89306 26.51879 22572 ft 427 kts 354°
2026-05-05 19:06 65.92206 26.50195 22581 ft 422 kts 342°
2026-05-05 19:06 65.94931 26.47639 22580 ft 425 kts 335°
2026-05-05 19:07 65.97535 26.44187 22567 ft 428 kts 330°
2026-05-05 19:07 66.00016 26.40213 22564 ft 426 kts 326°
2026-05-05 19:07 66.02352 26.35675 22212 ft 427 kts 320°
2026-05-05 19:07 66.04546 26.30922 21194 ft 417 kts 318°
2026-05-05 19:08 66.06715 26.26246 20159 ft 410 kts 321°
2026-05-05 19:08 66.08934 26.21908 19096 ft 404 kts 322°
2026-05-05 19:08 66.11095 26.17617 17998 ft 396 kts 321°
2026-05-05 19:08 66.13189 26.13461 16147 ft 342 kts 321°
2026-05-05 19:09 66.15056 26.09796 14743 ft 362 kts 321°
2026-05-05 19:09 66.16998 26.05928 13553 ft 355 kts 321°
2026-05-05 19:09 66.18880 26.02218 12760 ft 327 kts 322°
2026-05-05 19:09 66.20579 25.98819 12416 ft 304 kts 322°
2026-05-05 19:10 66.22197 25.95598 12081 ft 295 kts 322°
2026-05-05 19:10 66.23901 25.92265 11644 ft 329 kts 322°
2026-05-05 19:10 66.25533 25.89027 11124 ft 283 kts 322°
2026-05-05 19:10 66.27005 25.86128 10725 ft 256 kts 321°
2026-05-05 19:11 66.28411 25.83316 10642 ft 259 kts 322°
2026-05-05 19:11 66.29770 25.80615 10434 ft 241 kts 322°
2026-05-05 19:11 66.31157 25.77894 10328 ft 251 kts 321°
2026-05-05 19:11 66.32366 25.75469 9725 ft 219 kts 322°
2026-05-05 19:12 66.33695 25.72832 8925 ft 271 kts 322°
2026-05-05 19:12 66.35027 25.70199 8146 ft 238 kts 322°
2026-05-05 19:12 66.36305 25.67643 7436 ft 234 kts 322°
2026-05-05 19:12 66.37561 25.65113 6751 ft 230 kts 322°
2026-05-05 19:13 66.38797 25.62637 6099 ft 225 kts 322°
2026-05-05 19:13 66.40039 25.60182 5469 ft 228 kts 324°
2026-05-05 19:13 66.41425 25.58377 4764 ft 223 kts 345°
2026-05-05 19:13 66.42956 25.58256 3944 ft 223 kts 12°
2026-05-05 19:14 66.44276 25.59757 3162 ft 211 kts 32°
2026-05-05 19:14 66.45505 25.61975 2734 ft 204 kts 38°
2026-05-05 19:14 66.46541 25.64006 2610 ft 170 kts 38°
2026-05-05 19:14 66.47428 25.65728 2642 ft 145 kts 38°
2026-05-05 19:15 66.48189 25.67196 2471 ft 128 kts 37°
2026-05-05 19:15 66.49215 25.67853 2486 ft 198 kts 346°
2026-05-05 19:15 66.50172 25.65049 2591 ft 235 kts 278°
2026-05-05 19:15 66.49553 25.61556 2378 ft 235 kts 213°
2026-05-05 19:16 66.48022 25.61281 2453 ft 229 kts 150°
2026-05-05 19:16 66.47150 25.64268 2458 ft 219 kts 82°
2026-05-05 19:16 66.48069 25.67072 2269 ft 220 kts 36°
2026-05-05 19:16 66.49160 25.69258 2341 ft 183 kts 36°
2026-05-05 19:17 66.50156 25.71121 2163 ft 183 kts 38°
2026-05-05 19:17 66.51186 25.73108 1940 ft 183 kts 36°
2026-05-05 19:17 66.52164 25.74896 1579 ft 166 kts 36°
2026-05-05 19:17 66.53097 25.76649 1245 ft 168 kts 36°
2026-05-05 19:18 66.54019 25.78396 1055 ft 167 kts 35°
2026-05-05 19:18 66.54933 25.80080 768 ft 157 kts 36°
2026-05-05 19:18 66.55749 25.81634 616 ft 134 kts 37°
2026-05-05 19:18 66.56251 25.82596 627 ft 57 kts 37°
2026-05-05 19:19 66.56514 25.83094 629 ft 29 kts 37°
2026-05-05 19:19 66.56660 25.83356 628 ft 20 kts 24°
2026-05-05 19:19 66.56791 25.83344 631 ft 17 kts 352°
2026-05-05 19:19 66.56883 25.83311 635 ft 11 kts 351°
2026-05-05 19:20 66.56912 25.83150 642 ft 16 kts 226°
2026-05-05 19:20 66.56823 25.82976 646 ft 20 kts 217°
2026-05-05 19:20 66.56796 25.82848 650 ft 5 kts 309°
2026-05-05 19:20 66.56803 25.82826 650 ft 0 kts 308°